createdAt,value
2022-08-18T04:29:41.633Z,38.5
2022-08-18T04:31:56.074Z,38.799999
2022-08-18T04:34:10.536Z,41
2022-08-18T04:36:24.899Z,35.900002
2022-08-18T04:38:39.307Z,33.5
2022-08-18T04:40:53.658Z,32.099998
2022-08-18T04:43:08.041Z,30.700001
2022-08-18T04:45:22.397Z,31.799999
2022-08-18T04:47:36.752Z,32.200001
2022-08-18T04:49:51.131Z,34.5
2022-08-18T04:52:22.327Z,32.900002
2022-08-18T04:54:22.839Z,35.200001
2022-08-18T04:56:37.305Z,40.700001
2022-08-18T04:58:52.678Z,37.900002
2022-08-18T05:01:07.089Z,41.900002
2022-08-18T05:03:21.470Z,39.200001
2022-08-18T05:05:35.843Z,42.299999
2022-08-18T05:07:50.378Z,45.700001
2022-08-18T05:10:04.571Z,48.099998
2022-08-18T05:12:20.484Z,39.200001
2022-08-18T05:14:36.328Z,37.400002
2022-08-18T05:16:50.722Z,39.799999
2022-08-18T05:19:06.061Z,57.900002
2022-08-18T05:21:23.741Z,45.400002
2022-08-18T05:23:38.781Z,99.800003
2022-08-18T05:25:54.094Z,175.19999
2022-08-18T05:28:08.484Z,204
2022-08-18T05:30:22.928Z,207.6
2022-08-18T05:32:46.831Z,485.29998
2022-08-18T05:34:54.627Z,378.89999
2022-08-18T05:37:08.984Z,422.89999
2022-08-18T05:39:23.323Z,671.40002
2022-08-18T05:41:37.705Z,484.20001
2022-08-18T05:43:52.514Z,410.29998
2022-08-18T05:46:06.488Z,631.70001
2022-08-18T05:48:20.835Z,341.70001
2022-08-18T05:50:35.252Z,435.1
2022-08-18T05:52:49.762Z,219
2022-08-18T05:55:04.122Z,130.6
2022-08-18T05:57:18.494Z,156.19999
2022-08-18T05:59:32.866Z,56
2022-08-18T06:01:47.237Z,54.5
2022-08-18T06:04:02.627Z,44.599998
2022-08-18T06:06:17.006Z,341.89999
2022-08-18T06:08:31.477Z,61
2022-08-18T06:10:45.843Z,59.099998
2022-08-18T06:13:00.257Z,82.900002
2022-08-18T06:15:14.665Z,41.200001
2022-08-18T06:17:29.075Z,82.099998
2022-08-18T06:19:43.417Z,103.4
2022-08-18T06:21:57.773Z,42.900002
2022-08-18T06:24:12.152Z,48.400002
2022-08-18T06:26:26.474Z,38.5
2022-08-18T06:28:41.833Z,71.599998
2022-08-18T06:30:56.241Z,147.89999
2022-08-18T06:33:11.516Z,220
2022-08-18T06:35:25.874Z,222.8
2022-08-18T06:37:40.831Z,48.700001
2022-08-18T06:39:57.027Z,56.700001
2022-08-18T06:42:14.657Z,48
2022-08-18T06:44:31.179Z,46.299999
2022-08-18T06:46:53.625Z,320.29998
2022-08-18T06:49:12.552Z,239.8
2022-08-18T06:51:40.623Z,223.69999
2022-08-18T06:53:56.691Z,180.19999
2022-08-18T06:56:26.056Z,52.799999
2022-08-18T06:58:35.045Z,48.900002
2022-08-18T07:00:55.987Z,634.70001
2022-08-18T07:03:12.365Z,516.59997
2022-08-18T07:05:35.570Z,61
2022-08-18T07:07:50.774Z,152.19999
2022-08-18T07:10:08.743Z,205
2022-08-18T07:12:26.690Z,149
2022-08-18T07:14:49.977Z,126.59999
2022-08-18T07:17:07.286Z,123.59999
2022-08-18T07:19:26.404Z,65.300003
2022-08-18T07:21:43.561Z,434.89999
2022-08-18T07:24:21.393Z,96.699997
2022-08-18T07:29:01.135Z,171.89999
2022-08-18T07:31:18.791Z,113.3
2022-08-18T07:33:34.303Z,63.400002
2022-08-18T07:36:19.641Z,306.70001
2022-08-18T07:38:42.928Z,51.5
2022-08-18T07:41:08.941Z,101.8
2022-08-18T07:43:27.091Z,148.69999
2022-08-18T07:45:44.308Z,64.400002
2022-08-18T07:48:10.836Z,105.4
2022-08-18T07:50:31.724Z,97.699997
2022-08-18T07:52:44.641Z,76.800003
2022-08-18T07:54:54.877Z,56.299999
2022-08-18T07:57:10.097Z,108.19999
2022-08-18T07:59:25.813Z,49.900002
2022-08-18T08:01:40.233Z,41.799999
2022-08-18T08:03:54.529Z,45.700001
2022-08-18T08:06:10.015Z,50.400002
2022-08-18T08:08:25.764Z,42.5
2022-08-18T08:10:39.804Z,87.599998
2022-08-18T08:13:06.005Z,37.099998
2022-08-18T08:15:11.544Z,35.099998
2022-08-18T08:17:25.978Z,46
2022-08-18T08:19:59.865Z,55.5
2022-08-18T08:21:57.639Z,65.199997
2022-08-18T08:24:12.003Z,85.699997
2022-08-18T08:26:27.378Z,66.5
2022-08-18T08:28:41.762Z,47
2022-08-18T08:31:05.188Z,38.900002
2022-08-18T08:33:13.500Z,120.59999
2022-08-18T08:35:48.992Z,65.5
2022-08-18T08:37:45.197Z,62.5
2022-08-18T08:39:59.603Z,48.400002
2022-08-18T08:42:29.870Z,38.599998
2022-08-18T08:44:31.290Z,39.799999
2022-08-18T08:46:45.688Z,43.900002
2022-08-18T08:49:01.143Z,39.599998
2022-08-18T08:51:15.513Z,52.299999
2022-08-18T08:53:29.892Z,47.400002
2022-08-18T08:55:44.283Z,43.700001
2022-08-18T08:57:58.621Z,61.299999
2022-08-18T09:00:13.038Z,68.900002
2022-08-18T09:02:48.623Z,66.300003
2022-08-18T09:04:53.324Z,59.200001
2022-08-18T09:07:02.041Z,49.799999
2022-08-18T09:09:17.380Z,69.900002
2022-08-18T09:11:31.772Z,39.099998
2022-08-18T09:13:46.187Z,39
2022-08-18T09:16:01.572Z,43
2022-08-18T09:18:18.000Z,39.099998
2022-08-18T09:20:33.437Z,36.5
2022-08-18T09:22:47.895Z,38.599998
2022-08-18T09:25:02.230Z,46
2022-08-18T09:27:16.648Z,50.200001
2022-08-18T09:29:31.050Z,56.900002
2022-08-18T09:31:46.547Z,37.299999
2022-08-18T09:34:07.340Z,53
2022-08-18T09:36:20.489Z,47.099998
2022-08-18T09:38:35.736Z,60.599998
2022-08-18T09:41:02.256Z,50.200001
2022-08-18T09:43:09.025Z,40
2022-08-18T09:45:26.893Z,42.900002
2022-08-18T09:47:47.645Z,41.799999
2022-08-18T09:49:59.770Z,42.700001
2022-08-18T09:52:17.125Z,40
2022-08-18T09:54:32.474Z,46.099998
2022-08-18T09:56:49.397Z,38.599998
2022-08-18T09:59:09.873Z,41.599998
2022-08-18T10:01:21.602Z,44.799999
2022-08-18T10:03:36.888Z,44.200001
2022-08-18T10:05:51.263Z,45.700001
2022-08-18T10:08:05.647Z,41.099998
2022-08-18T10:10:58.650Z,40.5
2022-08-18T10:12:37.413Z,35.900002
2022-08-18T10:14:51.765Z,37.400002
2022-08-18T10:17:21.932Z,36.5
2022-08-18T10:19:28.128Z,37.799999
2022-08-18T10:21:40.885Z,35.799999
2022-08-18T10:24:08.419Z,39.200001
2022-08-18T10:26:13.489Z,41.099998
2022-08-18T10:28:29.789Z,41.900002
2022-08-18T10:33:07.484Z,42.700001
2022-08-18T10:35:17.885Z,41
2022-08-18T10:37:32.241Z,36.700001
2022-08-18T10:39:46.645Z,36.099998
2022-08-18T10:42:03.001Z,38.700001
2022-08-18T10:44:28.551Z,36.599998
2022-08-18T10:46:38.251Z,42.200001
2022-08-18T10:48:52.165Z,43.599998
2022-08-18T10:51:06.513Z,45.099998
2022-08-18T10:53:39.909Z,41.5
2022-08-18T10:55:43.280Z,41.700001
2022-08-18T10:57:55.585Z,39.299999
2022-08-18T11:00:11.125Z,41
2022-08-18T11:02:27.306Z,38.700001
2022-08-18T11:04:42.798Z,41
2022-08-18T11:06:58.215Z,42.400002
2022-08-18T11:09:12.630Z,40.5
2022-08-18T11:11:31.455Z,38
2022-08-18T11:13:46.801Z,37.799999
2022-08-18T11:16:01.131Z,39
2022-08-18T11:18:15.511Z,39.599998
2022-08-18T11:20:29.848Z,39.599998
2022-08-18T11:22:45.229Z,40.900002
2022-08-18T11:25:02.971Z,37.200001
2022-08-18T11:27:16.933Z,33.400002
2022-08-18T11:29:32.843Z,33.599998
2022-08-18T11:31:52.435Z,32
2022-08-18T11:34:05.339Z,29.9
2022-08-18T11:36:19.712Z,27
2022-08-18T11:38:35.073Z,26.1
2022-08-18T11:41:09.260Z,24.9
2022-08-18T11:43:08.809Z,24.9
2022-08-18T11:45:25.124Z,24.700001
2022-08-18T11:47:39.491Z,23.9
2022-08-18T11:49:54.822Z,20.1
2022-08-18T11:52:09.199Z,22.6
2022-08-18T11:54:24.962Z,24.1
2022-08-18T11:56:39.894Z,20.200001
2022-08-18T11:58:54.241Z,22.700001
2022-08-18T12:01:08.591Z,22.9
2022-08-18T12:03:22.990Z,23
2022-08-18T12:05:45.795Z,22
2022-08-18T12:07:57.285Z,22.700001
2022-08-18T12:10:16.174Z,23.1
2022-08-18T12:12:29.405Z,25.200001
2022-08-18T12:14:44.630Z,22.6
2022-08-18T12:17:01.978Z,24.6
2022-08-18T12:19:17.312Z,24.200001
2022-08-18T12:21:33.692Z,27.799999
2022-08-18T12:26:05.424Z,26.799999
2022-08-18T12:28:22.973Z,25.9
2022-08-18T12:30:42.144Z,24.1
2022-08-18T12:33:05.799Z,25.200001
2022-08-18T12:35:12.916Z,22.6
2022-08-18T12:37:58.068Z,23.299999
2022-08-18T12:39:45.185Z,24
2022-08-18T12:42:00.637Z,24
2022-08-18T12:44:14.792Z,24
2022-08-18T12:46:32.205Z,22.200001
2022-08-18T12:48:46.564Z,23.799999
2022-08-18T12:51:01.978Z,24.200001
2022-08-18T12:53:18.283Z,23.4
2022-08-18T12:55:35.557Z,20.200001
2022-08-18T12:57:53.957Z,22
2022-08-18T13:00:08.401Z,22.4
2022-08-18T13:02:24.714Z,32.599998
2022-08-18T13:04:39.197Z,20.799999
2022-08-18T13:06:59.760Z,22.9
2022-08-18T13:09:16.491Z,22.299999
2022-08-18T13:11:28.231Z,21.299999
2022-08-18T13:13:43.592Z,18.799999
2022-08-18T13:16:01.183Z,20.1
2022-08-18T13:18:15.243Z,20
2022-08-18T13:20:30.595Z,18.200001
2022-08-18T13:22:44.946Z,16.4
2022-08-18T13:25:01.311Z,17.9
2022-08-18T13:27:18.691Z,16.6
2022-08-18T13:29:34.041Z,15.6
2022-08-18T13:31:55.687Z,14.8
2022-08-18T13:34:07.836Z,16
2022-08-18T13:36:24.077Z,14.5
2022-08-18T13:38:39.443Z,14.1
2022-08-18T13:40:54.803Z,14.6
2022-08-18T13:43:10.137Z,13.6
2022-08-18T13:45:26.484Z,15
2022-08-18T13:47:42.790Z,15.3
2022-08-18T13:49:59.382Z,14.3
2022-08-18T13:52:32.949Z,13.1
2022-08-18T13:54:33.933Z,14.2
2022-08-18T13:56:51.419Z,11.8
2022-08-18T13:59:05.506Z,10.6
2022-08-18T14:01:52.132Z,12.8
2022-08-18T14:03:43.004Z,13.2
2022-08-18T14:06:01.183Z,12.8
2022-08-18T14:08:19.000Z,16.200001
2022-08-18T14:10:30.224Z,13.7
2022-08-18T14:12:47.574Z,11.6
2022-08-18T14:15:02.944Z,10.8
2022-08-18T14:17:18.351Z,14.6
2022-08-18T14:19:34.791Z,13.8
2022-08-18T14:21:51.110Z,11.5
2022-08-18T14:24:05.488Z,13.3
2022-08-18T14:26:21.822Z,12.7
2022-08-18T14:28:41.360Z,15
2022-08-18T14:30:55.505Z,13.2
2022-08-18T14:33:10.818Z,14.1
2022-08-18T14:35:32.162Z,14.9
2022-08-18T14:37:42.530Z,14.4
2022-08-18T14:39:57.050Z,14.6
2022-08-18T14:42:12.350Z,13.5
2022-08-18T14:44:31.901Z,12.1
2022-08-18T14:46:52.068Z,11.1
2022-08-18T14:49:03.818Z,10.6
2022-08-18T14:51:18.632Z,12.6
2022-08-18T14:53:34.994Z,10.4
2022-08-18T14:55:50.512Z,9.2
2022-08-18T14:58:07.207Z,10.4
2022-08-18T15:00:22.657Z,8.9
2022-08-18T15:02:36.598Z,8.9
2022-08-18T15:04:56.531Z,9.5
2022-08-18T15:07:10.322Z,8.1
2022-08-18T15:09:27.293Z,10.2
2022-08-18T15:11:42.086Z,9.5
2022-08-18T15:13:58.404Z,9
2022-08-18T15:16:12.793Z,7.9
2022-08-18T15:18:27.235Z,6.2
2022-08-18T15:20:43.886Z,7.3
2022-08-18T15:22:58.238Z,5.9
2022-08-18T15:25:13.595Z,5.3
2022-08-18T15:27:42.111Z,5.3
2022-08-18T15:29:46.258Z,6
2022-08-18T15:32:05.280Z,6.3
2022-08-18T15:34:20.993Z,5.3
2022-08-18T15:36:36.394Z,6.2
2022-08-18T15:38:50.756Z,6.1
2022-08-18T15:41:09.241Z,6.8
2022-08-18T15:43:25.445Z,6
2022-08-18T15:45:42.851Z,5.6
2022-08-18T15:47:58.264Z,5.4
2022-08-18T15:50:21.769Z,5.1
2022-08-18T15:52:29.942Z,5.4
2022-08-18T15:54:50.338Z,5.7
2022-08-18T15:57:02.721Z,5.6
2022-08-18T15:59:19.084Z,5.1
2022-08-18T16:01:34.547Z,5
2022-08-18T16:03:49.818Z,4.4
2022-08-18T16:06:06.234Z,4.5
2022-08-18T16:08:22.661Z,4.5
2022-08-18T16:10:37.110Z,4.5
2022-08-18T16:12:51.417Z,4.9
2022-08-18T16:15:07.400Z,16.799999
2022-08-18T16:17:24.062Z,4.5
2022-08-18T16:19:38.464Z,4.7
2022-08-18T16:21:53.918Z,6.2
2022-08-18T16:24:08.344Z,4.4
2022-08-18T16:26:22.833Z,5
2022-08-18T16:28:37.308Z,4.5
2022-08-18T16:30:52.664Z,5.3
2022-08-18T16:33:07.135Z,5.8
2022-08-18T16:35:21.500Z,5.3
2022-08-18T16:37:35.845Z,4.6
2022-08-18T16:39:50.334Z,4.8
2022-08-18T16:42:04.643Z,4.7
2022-08-18T16:44:19.024Z,4.2
2022-08-18T16:46:33.487Z,4.3
2022-08-18T16:48:47.856Z,4.1
2022-08-18T16:51:02.308Z,4.3
2022-08-18T16:53:16.708Z,4.7
2022-08-18T16:55:31.230Z,4
2022-08-18T16:57:53.487Z,3.7
2022-08-18T17:00:02.986Z,4
2022-08-18T17:02:17.487Z,3.8
2022-08-18T17:04:31.839Z,4.8
2022-08-18T17:06:47.779Z,4.3
2022-08-18T17:09:09.204Z,4.8
2022-08-18T17:11:20.000Z,6.5
2022-08-18T17:13:34.345Z,3.8
2022-08-18T17:15:48.791Z,4.8
2022-08-18T17:18:03.262Z,3.8
2022-08-18T17:20:19.198Z,3.6
2022-08-18T17:22:33.177Z,5.2
2022-08-18T17:24:49.637Z,4.6
2022-08-18T17:27:12.297Z,4.4
2022-08-18T17:29:21.985Z,5.7
2022-08-18T17:31:37.505Z,4.2
2022-08-18T17:33:53.542Z,9.5
2022-08-18T17:36:07.919Z,3.8
2022-08-18T17:38:23.419Z,7.2
2022-08-18T17:40:37.833Z,9.7
2022-08-18T17:42:52.542Z,6.5
2022-08-18T17:45:06.868Z,5.2
2022-08-18T17:47:23.340Z,7.4
2022-08-18T17:49:39.652Z,5.8
2022-08-18T17:51:55.308Z,4.9
2022-08-18T17:54:09.473Z,5.7
2022-08-18T17:56:24.846Z,6.6
2022-08-18T17:58:41.333Z,5.1
2022-08-18T18:00:55.869Z,6.3
2022-08-18T18:03:13.242Z,5
2022-08-18T18:05:26.826Z,5
2022-08-18T18:07:41.269Z,4.7
2022-08-18T18:09:55.644Z,4.4
2022-08-18T18:12:10.187Z,6.5
2022-08-18T18:14:24.673Z,5.1
2022-08-18T18:16:38.991Z,5.1
2022-08-18T18:18:53.580Z,5.8
2022-08-18T18:21:10.006Z,7.7
2022-08-18T18:23:24.416Z,5.1
2022-08-18T18:25:38.829Z,6.3
2022-08-18T18:27:53.411Z,5.1
2022-08-18T18:30:09.580Z,5.7
2022-08-18T18:32:23.938Z,5.9
2022-08-18T18:34:38.323Z,5
2022-08-18T18:36:52.837Z,6.1
2022-08-18T18:39:07.227Z,6.3
2022-08-18T18:41:21.542Z,5.1
2022-08-18T18:43:35.915Z,5.1
2022-08-18T18:45:50.460Z,5.2
2022-08-18T18:48:04.979Z,5.2
2022-08-18T18:50:19.412Z,5.6
2022-08-18T18:52:34.812Z,5.6
2022-08-18T18:54:50.240Z,10.7
2022-08-18T18:57:04.568Z,11.3
2022-08-18T18:59:20.087Z,11.7
2022-08-18T19:01:34.452Z,8.7
2022-08-18T19:03:48.782Z,9.4
2022-08-18T19:06:03.285Z,7.9
2022-08-18T19:08:17.650Z,6.7
2022-08-18T19:10:33.164Z,8.6
2022-08-18T19:12:47.671Z,5.7
2022-08-18T19:15:01.935Z,5.7
2022-08-18T19:17:16.329Z,7.5
2022-08-18T19:19:36.530Z,5.8
2022-08-18T19:22:03.002Z,6.5
2022-08-18T19:24:07.390Z,5.1
2022-08-18T19:26:21.659Z,5.3
2022-08-18T19:28:36.987Z,5.6
2022-08-18T19:30:53.844Z,5.3
2022-08-18T19:33:08.265Z,4.9
2022-08-18T19:35:23.640Z,9.4
2022-08-18T19:37:40.294Z,5.3
2022-08-18T19:39:54.463Z,7.7
2022-08-18T19:42:10.054Z,5.8
2022-08-18T19:44:24.417Z,5.9
2022-08-18T19:46:38.883Z,5.4
2022-08-18T19:48:53.335Z,6.6
2022-08-18T19:51:07.767Z,5
2022-08-18T19:53:22.332Z,4.7
2022-08-18T19:55:36.880Z,5.1
2022-08-18T19:57:51.186Z,4.8
2022-08-18T20:00:06.632Z,7
2022-08-18T20:02:21.886Z,6
2022-08-18T20:04:39.114Z,4.7
2022-08-18T20:06:57.134Z,5.6
2022-08-18T20:12:35.514Z,4.3
2022-08-18T20:14:56.747Z,8.2
2022-08-18T20:17:14.044Z,5.2
2022-08-18T20:19:28.725Z,5.7
2022-08-18T20:21:43.236Z,4.9
2022-08-18T20:23:58.199Z,5.2
2022-08-18T20:26:15.254Z,4.9
2022-08-18T20:28:30.144Z,5.2
2022-08-18T20:30:46.968Z,5.3
2022-08-18T20:33:02.220Z,7.5
2022-08-18T20:35:16.764Z,4.9
2022-08-18T20:37:35.100Z,4.9
2022-08-18T20:39:52.277Z,4.7
2022-08-18T20:42:07.586Z,4.7
2022-08-18T20:44:29.107Z,4.9
2022-08-18T20:46:44.461Z,5.2
2022-08-18T20:49:01.090Z,5.8
2022-08-18T20:51:16.192Z,6.4
2022-08-18T20:53:33.890Z,7.2
2022-08-18T20:55:53.052Z,8.6
2022-08-18T20:58:10.400Z,5.6
2022-08-18T21:00:27.637Z,5.4
2022-08-18T21:02:45.095Z,5.6
2022-08-18T21:05:00.734Z,6.5
2022-08-18T21:07:16.210Z,6.7
2022-08-18T21:09:32.226Z,5.7
2022-08-18T21:11:48.072Z,5.5
2022-08-18T21:14:04.553Z,7.4
2022-08-18T21:16:26.436Z,5.4
2022-08-18T21:18:43.861Z,5.5
2022-08-18T21:21:01.390Z,5.2
2022-08-18T21:23:17.081Z,6.2
2022-08-18T21:25:34.301Z,5.5
2022-08-18T21:27:50.404Z,5.2
